x

Canaveral East - 120nm East Of Cape Canaveral (41010) Wave Buoy

9:50pm - Fri 26th Dec 2014 All times are EST. -5 hours from GMT.

  • Sig Wave height 2.6ft
  • Swell Direction
  • Peak Period 9s
  • Average Period 5s
  • Wind
    9mph, 11mph gusts
  • Sea Temp 76°f
  • Air Temp 74°f
  • Sea Pressure 1023.8mb
  • Canaveral East - 120nm East Of Cape Canaveral
  • Canaveral East - 120nm East Of Cape Canaveral

More Historic Weather Station data

Upgrade to MSW Pro to gain access to the past 30 days of data for over 8000 Wavebouys and Weather Stations around the globe.

Join Pro

Comparision Forecast

View Surf forecast
   
Fri 12/26 9:50pm 2.5ft 9s 5s 9 11 mph 1023.8mb 76f 74f
9:20pm  -   -   -  9 11 mph 1023.8mb 76f 74f
8:50pm 2.5ft 5s 5s 7 9 mph 1023.9mb 76f 74f
8:20pm  -   -   -  7 9 mph 1023.9mb 76f 74f
7:50pm 2.5ft 5s 5s 7 11 mph 1023.6mb 76f 74f
7:20pm  -   -   -  7 9 mph 1023.4mb 76f 74f
6:50pm 2.5ft 7s 5s 7 9 mph 1023.4mb 76f 74f
6:20pm  -   -   -  7 9 mph 1023mb 76f 73f
5:50pm 2.5ft 12s 5s 7 9 mph 1023.1mb 76f 73f
5:20pm  -   -   -  7 9 mph 1022.8mb 76f 73f
4:20pm  -   -   -  9 11 mph 1022.3mb 76f 73f
3:50pm 2.5ft 9s 5s 7 9 mph 1022.3mb 76f 73f
3:20pm  -   -   -  7 9 mph 1022.3mb 76f 73f
2:50pm 3ft 9s 5s 7 9 mph 1022.3mb 76f 73f
2:20pm  -   -   -  7 9 mph 1022.1mb 76f 73f
1:50pm 3ft 7s 5s 7 9 mph 1022.3mb 76f 73f
1:20pm  -   -   -  7 9 mph 1022.4mb 76f 73f
12:50pm 3.5ft 7s 5s 7 9 mph 1022.8mb 76f 72f
12:20pm  -   -   -  7 9 mph 1023.3mb 76f 72f
11:50am 3.5ft 6s 5s 7 9 mph 1023.7mb 76f 72f
11:20am  -   -   -  7 9 mph 1024.1mb 76f 72f
10:50am 3.5ft 6s 5s 7 9 mph 1024.3mb 76f 72f
10:20am  -   -   -  9
mph
1024.4mb 76f 71f
9:50am 3.5ft 6s 5s 7 9 mph 1024.4mb 76f 71f
9:20am  -   -   -  9 11 mph 1024.2mb 76f 71f
8:50am 3.5ft 6s 5s 9 11 mph 1023.9mb 76f 71f
8:20am  -   -   -  9 13 mph 1023.7mb 76f 70f
7:50am 3.5ft 6s 5s 9 13 mph 1023.5mb 76f 70f
6:50am 3.5ft 6s 5s 9 11 mph 1023mb 77f 70f
6:20am  -   -   -  11 13 mph 1022.8mb 77f 70f
5:50am 3.5ft 6s 5s 11 13 mph 1022.5mb 77f 69f
5:20am  -   -   -  11 16 mph 1022.4mb 77f 69f
4:50am 3.5ft 7s 6s 11 18 mph 1022.4mb 77f 69f
4:20am  -   -   -  11 16 mph 1022.4mb 76f 70f
3:50am 3.5ft 7s 6s 9 13 mph 1022.6mb 76f 69f
3:20am  -   -   -  9 13 mph 1022.7mb 76f 69f
2:50am 4ft 7s 6s 9 13 mph 1022.8mb 76f 69f
2:20am  -   -   -  11 13 mph 1022.8mb 76f 69f
1:50am 4.5ft 7s 6s 11 16 mph 1022.8mb 76f 69f
1:20am  -   -   -  9 13 mph 1022.8mb 76f 69f
12:50am 4.5ft 7s 6s 11 16 mph 1022.5mb 76f 69f
12:20am  -   -   -  13 18 mph 1022.4mb 76f 69f
Thu 12/25 11:50pm 5ft 7s 6s 11 18 mph 1022.6mb 77f 69f
11:20pm  -   -   -  9 13 mph 1022.8mb 77f 69f
10:50pm 5ft 7s 6s 11 13 mph 1022.9mb 76f 70f
10:20pm  -   -   -  9 13 mph 1022.9mb 76f 70f
9:50pm 5.5ft 7s 6s 11 13 mph 1022.7mb 76f 70f
9:20pm  -   -   -  9 11 mph 1022.5mb 76f 70f
8:50pm 5ft 7s 6s 7 9 mph 1022.3mb 76f 70f
8:20pm  -   -   -  7 9 mph 1021.9mb 76f 70f
7:50pm 5ft 7s 6s 4 7 mph 1022.1mb 76f 70f
7:20pm  -   -   -  4 7 mph 1022.1mb 76f 70f
6:50pm 5ft 7s 6s 4 7 mph 1022.1mb 76f 70f
6:20pm  -   -   -  4 9 mph 1021.9mb 76f 69f
5:50pm 5ft 7s 6s 7 9 mph 1021.5mb 76f 69f
5:20pm  -   -   -  9 13 mph 1021.5mb 76f 69f
4:50pm 5.5ft 7s 6s 9 13 mph 1021.4mb 76f 69f
4:20pm  -   -   -  9 13 mph 1021mb 76f 69f
3:50pm 5ft 7s 6s 11 16 mph 1021mb 76f 69f
3:20pm  -   -   -  11 13 mph 1021mb 76f 69f
2:50pm 5.5ft 6s 5s 16 20 mph 1020.8mb 76f 69f
2:20pm  -   -   -  16 20 mph 1020.6mb 76f 69f
1:50pm 6ft 6s 5s 18 22 mph 1020.5mb 77f 69f
1:20pm  -   -   -  20 25 mph 1020.3mb 77f 69f
12:50pm 5.5ft 6s 5s 20 27 mph 1020.4mb 77f 70f
12:20pm  -   -   -  20 27 mph 1020.6mb 77f 70f
11:50am 5ft 7s 5s 18 22 mph 1021mb 77f 71f
11:20am  -   -   -  18 22 mph 1021.2mb 77f 71f
10:50am 5.5ft 6s 5s 18 20 mph 1021.3mb 77f 71f
10:20am  -   -   -  18 20 mph 1021.1mb 77f 71f
9:50am 5.5ft 6s 5s 20 25 mph 1020.6mb 77f 72f
9:20am  -   -   -  18 22 mph 1019.9mb 77f 72f
8:50am 5ft 7s 5s 18 22 mph 1019.2mb 77f 72f
8:20am  -   -   -  18 22 mph 1018.7mb 77f 73f
7:50am 5ft 7s 5s 18 22 mph 1018.1mb 77f 73f
7:20am  -   -   -  18 22 mph 1017.5mb 77f 74f
6:50am 5.5ft 7s 5s 11 13 mph 1016.8mb 77f 74f
6:20am  -   -   -  13 18 mph 1016.5mb 77f 74f
5:50am 5ft 7s 5s 16 20 mph 1016.3mb 77f 73f
5:20am  -   -   -  18 20 mph 1015.9mb 77f 74f
4:50am 6ft 7s 5s 18 22 mph 1015.6mb 77f 74f
4:20am  -   -   -  20 25 mph 1015.4mb 77f 71f
3:50am 5.5ft 7s 5s 22 27 mph 1015.5mb 77f 71f
3:20am  -   -   -  25 34 mph 1013.8mb 77f 77f
2:50am 6ft 6s 5s 25 27 mph 1013.5mb 77f 78f
2:20am  -   -   -  25 29 mph 1013.4mb 77f 78f
1:50am 6ft 6s 5s 25 29 mph 1013.4mb 76f 78f
1:20am  -   -   -  25 29 mph 1013.3mb 76f 78f
12:50am 6.5ft 6s 5s 25 29 mph 1013.3mb 76f 78f
12:20am  -   -   -  27 34 mph 1013.3mb 76f 78f
Wed 12/24 11:50pm 6ft 7s 5s 29 34 mph 1012.9mb 76f 77f
11:20pm  -   -   -  27 34 mph 1012.9mb 77f 77f
10:50pm 5.5ft 6s 5s 27 31 mph 1013.3mb 77f 77f
10:20pm  -   -   -  27 31 mph 1013.3mb 77f 77f
9:50pm 5ft 6s 5s 25 29 mph 1013.4mb 77f 77f
9:20pm  -   -   -  27 31 mph 1013.3mb 77f 77f
8:50pm 5ft 7s 5s 25 29 mph 1013.3mb 77f 77f
8:20pm  -   -   -  22 25 mph 1013.7mb 77f 77f
7:50pm 6ft 7s 5s 22 27 mph 1013.7mb 77f 77f
7:20pm  -   -   -  25 29 mph 1013.5mb 77f 77f
6:50pm 6ft 7s 5s 22 27 mph 1013.1mb 77f 77f
6:20pm  -   -   -  22 27 mph 1012.8mb 77f 77f
5:50pm 6ft 7s 5s 22 27 mph 1012.8mb 77f 77f
5:20pm  -   -   -  22 25 mph 1012.9mb 77f 77f
4:50pm 5ft 6s 5s 22 25 mph 1012.9mb 77f 77f
4:20pm  -   -   -  20 22 mph 1013.3mb 77f 77f
3:50pm 5ft 6s 5s 20 22 mph 1013.2mb 77f 77f
3:20pm  -   -   -  20 25 mph 1013.2mb 77f 77f
2:50pm 5ft 5s 5s 20 25 mph 1013mb 77f 77f
2:20pm  -   -   -  22 27 mph 1013.1mb 77f 77f
1:50pm 5ft 6s 5s 22 27 mph 1013.6mb 77f 77f
1:20pm  -   -   -  22 27 mph 1013.6mb 77f 77f
12:50pm 5ft 6s 5s 22 27 mph 1013.9mb 77f 77f
12:20pm  -   -   -  25 27 mph 1013.9mb 77f 77f
11:50am 5ft 5s 5s 22 25 mph 1014.5mb 77f 77f
11:20am  -   -   -  25 27 mph 1014.7mb 77f 77f
10:50am 4.5ft 6s 4s 25 29 mph 1015mb 77f 77f
10:20am  -   -   -  22 29 mph 1015.2mb 77f 77f
9:50am 5ft 6s 5s 25 29 mph 1014.8mb 77f 77f
9:20am  -   -   -  22 27 mph 1014.9mb 77f 77f
8:50am 4.5ft 6s 4s 20 27 mph 1014.8mb 77f 77f
8:20am  -   -   -  22 29 mph 1014.6mb 77f 77f
7:50am 4.5ft 5s 5s 20 25 mph 1014.4mb 77f 77f
7:20am  -   -   -  20 25 mph 1014.2mb 77f 77f
6:50am 4.5ft 5s 4s 22 25 mph 1013.8mb 77f 77f
6:20am  -   -   -  22 25 mph 1013.7mb 77f 77f
5:50am 5ft 6s 5s 22 25 mph 1013.6mb 77f 77f
5:20am  -   -   -  22 25 mph 1013.5mb 77f 76f
4:50am 4.5ft 5s 5s 22 27 mph 1013.6mb 76f 76f
4:20am  -   -   -  20 25 mph 1013.8mb 76f 76f
3:50am 4.5ft 6s 5s 22 27 mph 1013.9mb 76f 76f
3:20am  -   -   -  22 25 mph 1014.2mb 76f 76f
2:50am 4.5ft 6s 4s 20 25 mph 1014.2mb 76f 76f
2:20am  -   -   -  22 25 mph 1014.6mb 76f 76f
1:50am 4.5ft 5s 4s 20 25 mph 1014.7mb 76f 76f
1:20am  -   -   -  20 25 mph 1014.5mb 76f 76f
12:50am 4ft 5s 4s 20 25 mph 1014.4mb 76f 76f
12:20am  -   -   -  22 27 mph 1013.9mb 76f 76f
Tue 12/23 11:50pm 3.5ft 4s 4s 22 25 mph 1014.3mb 76f 77f
11:20pm  -   -   -  20 22 mph 1014.5mb 76f 76f
10:50pm 3.5ft 10s 4s 20 25 mph 1015mb 77f 77f
10:20pm  -   -   -  20 25 mph 1015.5mb 77f 77f
9:50pm 3.5ft 5s 4s 20 22 mph 1015.4mb 77f 77f
9:20pm  -   -   -  20 25 mph 1015.3mb 77f 77f
8:50pm 3.5ft 5s 4s 16 20 mph 1015.4mb 77f 77f
8:20pm  -   -   -  16 18 mph 1015.4mb 77f 77f
7:50pm 3.5ft 5s 4s 16 20 mph 1015.1mb 77f 77f
7:20pm  -   -   -  18 20 mph 1014.9mb 77f 77f
6:50pm 3.5ft 5s 5s 16 20 mph 1015mb 77f 76f
6:20pm  -   -   -  16 20 mph 1015mb 77f 77f
5:50pm 3.5ft 5s 4s 16 20 mph 1015.1mb 77f 77f
5:20pm  -   -   -  16 18 mph 1015mb 77f 77f
4:50pm 4ft 5s 4s 18 20 mph 1014.9mb 76f 77f
4:20pm  -   -   -  18 20 mph 1014.7mb 76f 76f
3:50pm 4ft 4s 4s 18 20 mph 1014.4mb 76f 76f
3:20pm  -   -   -  18 22 mph 1014.7mb 76f 77f
2:50pm 3.5ft 4s 4s 18 22 mph 1014.9mb 76f 77f
2:20pm  -   -   -  18 22 mph 1015mb 76f 76f
1:50pm 3.5ft 8s 4s 18 22 mph 1015mb 76f 76f
1:20pm  -   -   -  18 20 mph 1014.9mb 77f 76f
12:50pm 3.5ft 5s 4s 16 20 mph 1015.6mb 77f 76f
12:20pm  -   -   -  16 20 mph 1016.4mb 77f 77f
11:50am 3ft 9s 4s 16 18 mph 1016.6mb 77f 77f
11:20am  -   -   -  13 16 mph 1016.8mb 77f 77f
10:50am 3.5ft 5s 4s 13 16 mph 1016.9mb 77f 77f
10:20am  -   -   -  13 16 mph 1017mb 77f 77f
9:50am 3ft 9s 5s 16 18 mph 1016.9mb 77f 77f
9:20am  -   -   -  16 18 mph 1016.8mb 77f 77f
8:50am 3ft 8s 5s 16 18 mph 1016.1mb 77f 76f
8:20am  -   -   -  13 18 mph 1016mb 77f 76f
7:50am 3.5ft 9s 5s 13 16 mph 1016mb 77f 76f
6:50am 3ft 9s 5s 13 16 mph 1015.5mb 77f 76f
6:20am  -   -   -  16
mph
1015.4mb 77f 76f
5:50am 3ft 9s 5s 13 16 mph 1015.2mb 77f 76f
5:20am  -   -   -  13 16 mph 1015.4mb 77f 76f
4:50am 3.5ft 5s 5s 13 16 mph 1015mb 77f 76f
4:20am  -   -   -  13 16 mph 1015.3mb 77f 76f